Time;durP1;ratioP1;P1;durP2;ratioP2;P2;SDS_P1;SDS_P2;PMS_P1;PMS_P2;Temp;Humidity;BMP_temperature;BMP_pressure;BME280_temperature;BME280_humidity;BME280_pressure;Samples;Min_cycle;Max_cycle;Signal;HPM_P1;HPM_P2
2023/01/19 00:00:11;;;;;;;4.93;1.95;;;;;;;0.18;78.49;99089.69;5040958;28;20053;-50
2023/01/19 00:02:38;;;;;;;5.43;2.08;;;;;;;0.18;79.00;99084.59;5040509;28;20084;-50
2023/01/19 00:05:05;;;;;;;9.35;2.10;;;;;;;0.18;78.38;99089.69;5040128;28;20045;-50
2023/01/19 00:07:32;;;;;;;9.88;4.78;;;;;;;0.19;78.40;99096.50;5040761;28;20120;-50
2023/01/19 00:09:59;;;;;;;7.53;3.50;;;;;;;0.17;78.61;99087.13;5043469;28;20083;-50
2023/01/19 00:12:26;;;;;;;6.97;2.75;;;;;;;0.15;78.59;99089.63;5038947;28;20044;-52
2023/01/19 00:14:52;;;;;;;6.70;2.10;;;;;;;0.12;79.11;99090.41;5043189;28;20068;-48
2023/01/19 00:17:19;;;;;;;8.18;3.00;;;;;;;0.08;79.17;99091.16;5041992;28;20052;-52
2023/01/19 00:19:45;;;;;;;8.60;1.92;;;;;;;0.06;77.97;99094.47;5041035;28;20072;-50
2023/01/19 00:22:12;;;;;;;5.75;2.03;;;;;;;0.04;78.28;99107.19;5023943;28;20505;-50
2023/01/19 00:24:39;;;;;;;5.63;1.83;;;;;;;0.02;78.32;99102.84;5041089;28;20049;-51
2023/01/19 00:27:05;;;;;;;7.68;3.03;;;;;;;-0.03;78.70;99095.97;5030048;28;20107;-52
2023/01/19 00:29:33;;;;;;;7.30;2.20;;;;;;;-0.04;78.38;99098.47;5045819;28;20081;-54
2023/01/19 00:32:00;;;;;;;6.13;1.98;;;;;;;-0.08;78.05;99097.56;5046396;28;20048;-51
2023/01/19 00:34:35;;;;;;;5.30;1.95;;;;;;;-0.13;78.26;99099.13;5044950;28;20056;-51
2023/01/19 00:37:03;;;;;;;7.47;2.30;;;;;;;-0.19;78.15;99094.75;5042844;28;20057;-50
2023/01/19 00:39:29;;;;;;;7.05;2.67;;;;;;;-0.23;78.93;99104.78;5046415;28;20056;-49
2023/01/19 00:44:42;;;;;;;5.03;2.63;;;;;;;-0.28;78.74;99100.47;5060336;28;20080;-50
2023/01/19 00:47:09;;;;;;;7.47;3.13;;;;;;;-0.29;79.13;99108.91;5060842;28;20073;-52
2023/01/19 00:49:36;;;;;;;8.35;3.30;;;;;;;-0.31;78.84;99100.38;5043588;28;20049;-51
2023/01/19 00:52:03;;;;;;;7.63;2.35;;;;;;;-0.31;78.87;99110.53;5046596;28;20059;-50
2023/01/19 00:54:29;;;;;;;6.82;2.53;;;;;;;-0.33;78.44;99114.75;5042575;28;20041;-49
2023/01/19 00:56:56;;;;;;;5.00;3.22;;;;;;;-0.34;78.57;99110.47;5046920;28;20104;-50
2023/01/19 00:59:24;;;;;;;7.72;2.72;;;;;;;-0.35;78.54;99106.19;5055534;28;20041;-47
2023/01/19 01:01:51;;;;;;;7.55;2.50;;;;;;;-0.34;78.96;99104.53;5045979;28;20112;-48
2023/01/19 01:04:17;;;;;;;6.22;2.78;;;;;;;-0.36;78.50;99107.03;5043517;28;20127;-47
2023/01/19 01:06:44;;;;;;;9.07;2.95;;;;;;;-0.35;78.69;99103.66;5046554;28;20076;-50
2023/01/19 01:09:11;;;;;;;9.20;2.47;;;;;;;-0.37;78.66;99095.13;5045809;28;20510;-51
2023/01/19 01:11:39;;;;;;;6.78;2.88;;;;;;;-0.38;78.56;99093.41;5044209;28;20642;-52
2023/01/19 01:14:06;;;;;;;7.35;3.13;;;;;;;-0.40;79.05;99100.13;5045053;28;20072;-50
2023/01/19 01:16:33;;;;;;;10.95;2.97;;;;;;;-0.43;77.86;99089.88;5044106;28;20119;-51
2023/01/19 01:18:59;;;;;;;6.22;2.05;;;;;;;-0.45;78.61;99099.13;5041434;28;20123;-51
2023/01/19 01:21:26;;;;;;;10.77;3.45;;;;;;;-0.48;78.52;99094.00;5044382;28;20053;-52
2023/01/19 01:23:53;;;;;;;7.25;2.70;;;;;;;-0.50;78.63;99095.63;5045177;28;20072;-52
2023/01/19 01:26:19;;;;;;;8.32;2.92;;;;;;;-0.53;78.79;99099.78;5040364;28;20049;-50
2023/01/19 01:28:46;;;;;;;8.40;2.63;;;;;;;-0.56;78.68;99099.72;5042945;28;20478;-51
2023/01/19 01:31:13;;;;;;;7.85;3.22;;;;;;;-0.59;78.31;99091.13;5044328;28;20455;-49
2023/01/19 01:33:39;;;;;;;10.93;2.88;;;;;;;-0.63;78.55;99097.84;5046022;28;20055;-53
2023/01/19 01:36:08;;;;;;;5.50;2.65;;;;;;;-0.65;78.33;99097.78;5046240;28;20041;-53
2023/01/19 01:38:35;;;;;;;11.75;4.57;;;;;;;-0.67;78.33;99106.22;5044529;28;20049;-51
2023/01/19 01:41:02;;;;;;;12.52;4.03;;;;;;;-0.69;78.41;99118.88;5045532;28;20053;-53
2023/01/19 01:43:48;;;;;;;7.82;3.60;;;;;;;-0.69;78.34;99120.56;5044694;28;20076;-51
2023/01/19 01:46:16;;;;;;;8.60;3.60;;;;;;;-0.71;78.51;99109.50;5042698;28;20053;-50
2023/01/19 01:48:49;;;;;;;7.72;3.70;;;;;;;-0.71;78.40;99119.66;5027160;28;20132;-51
2023/01/19 01:51:28;;;;;;;5.63;2.75;;;;;;;-0.74;78.39;99117.03;5038013;28;20080;-52
2023/01/19 01:54:05;;;;;;;5.60;2.60;;;;;;;-0.74;78.35;99119.56;5042745;28;20130;-52
2023/01/19 01:56:34;;;;;;;;;;;;;;;-0.79;78.61;99127.94;5038436;28;20068;-53
2023/01/19 01:59:06;;;;;;;9.02;3.85;;;;;;;-0.78;78.20;99126.22;5057590;28;19929;-51
2023/01/19 02:04:21;;;;;;;8.77;3.03;;;;;;;-0.83;78.75;99126.13;5028289;28;20045;-49
2023/01/19 02:15:15;;;;;;;8.07;3.17;;;;;;;-0.89;78.98;99128.47;5031313;28;20057;-49
2023/01/19 02:17:42;;;;;;;7.90;3.72;;;;;;;-0.91;78.62;99122.50;5044770;28;20107;-48
2023/01/19 02:20:09;;;;;;;9.85;3.53;;;;;;;-0.92;78.99;99123.31;5042380;28;20103;-51
2023/01/19 02:22:46;;;;;;;7.57;3.13;;;;;;;-0.93;78.54;99131.75;5044340;28;20500;-50
2023/01/19 02:25:13;;;;;;;8.80;3.30;;;;;;;-0.94;78.79;99125.78;5045675;28;20091;-47
2023/01/19 02:27:41;;;;;;;10.45;3.95;;;;;;;-0.95;78.61;99119.00;5026791;28;20067;-50
2023/01/19 02:30:09;;;;;;;6.22;2.78;;;;;;;-0.96;78.59;99113.84;5035557;28;20076;-50
2023/01/19 02:32:36;;;;;;;9.30;3.22;;;;;;;-0.99;78.47;99118.84;5045611;28;20075;-51
2023/01/19 02:35:03;;;;;;;10.55;3.67;;;;;;;-1.02;78.20;99116.25;5043120;28;20091;-51
2023/01/19 02:37:36;;;;;;;6.47;2.63;;;;;;;-1.05;78.58;99112.78;5044196;28;20115;-50
2023/01/19 02:40:09;;;;;;;10.63;3.40;;;;;;;-1.08;78.51;99115.22;5028115;28;20049;-49
2023/01/19 02:42:42;;;;;;;6.28;2.85;;;;;;;-1.11;78.03;99115.16;5027042;28;20132;-51
2023/01/19 02:45:13;;;;;;;7.47;3.03;;;;;;;-1.13;78.65;99111.69;5045666;28;20056;-46
2023/01/19 02:47:44;;;;;;;11.82;4.18;;;;;;;-1.14;78.50;99114.19;5044841;28;20057;-51
2023/01/19 02:50:37;;;;;;;11.65;3.25;;;;;;;-1.19;78.07;99102.22;5045833;28;20053;-47
2023/01/19 02:53:16;;;;;;;8.50;3.05;;;;;;;-1.20;78.25;99104.72;5034404;28;20680;-48
2023/01/19 02:55:52;;;;;;;6.63;2.58;;;;;;;-1.22;78.11;99101.28;5037293;28;20551;-49
2023/01/19 02:58:32;;;;;;;6.00;2.78;;;;;;;-1.23;78.04;99107.16;5047038;28;20045;-50
2023/01/19 03:03:51;;;;;;;8.27;2.95;;;;;;;-1.26;78.00;99109.59;5049359;28;20404;-49
2023/01/19 03:06:32;;;;;;;6.28;3.65;;;;;;;-1.27;78.38;99116.38;5001046;28;20069;-51
2023/01/19 03:09:11;;;;;;;6.07;4.18;;;;;;;-1.31;78.61;99115.41;4999263;28;20662;-49
2023/01/19 03:11:42;;;;;;;7.63;3.60;;;;;;;-1.31;77.99;99119.63;5023594;28;20049;-48
2023/01/19 03:14:17;;;;;;;6.97;3.90;;;;;;;-1.32;78.49;99115.38;5005152;28;20058;-49
2023/01/19 03:16:50;;;;;;;7.10;3.65;;;;;;;-1.33;78.29;99114.50;5015279;28;20130;-48
2023/01/19 03:22:01;;;;;;;9.48;4.50;;;;;;;-1.35;78.11;99116.13;5045966;27;20406;-51
2023/01/19 03:24:33;;;;;;;7.57;4.32;;;;;;;-1.35;78.40;99117.81;5015211;28;20045;-50
2023/01/19 03:27:10;;;;;;;7.28;3.72;;;;;;;-1.36;78.24;99111.88;5013772;28;20061;-48
2023/01/19 03:29:41;;;;;;;8.10;2.28;;;;;;;-1.35;78.19;99105.13;5012778;28;20054;-49
2023/01/19 03:32:14;;;;;;;10.55;4.13;;;;;;;-1.35;78.68;99115.28;5011557;28;20042;-47
2023/01/19 03:34:42;;;;;;;6.40;3.70;;;;;;;-1.35;78.50;99117.81;5009351;28;20045;-48
2023/01/19 03:37:12;;;;;;;6.28;2.25;;;;;;;-1.35;78.13;99118.66;5003992;28;20073;-51
2023/01/19 03:39:39;;;;;;;5.93;2.53;;;;;;;-1.36;78.46;99116.94;5006823;28;20076;-48
2023/01/19 03:42:11;;;;;;;10.93;2.72;;;;;;;-1.35;78.70;99120.38;5014051;28;20046;-47
2023/01/19 03:44:40;;;;;;;8.25;4.00;;;;;;;-1.34;78.90;99117.88;5010939;28;20069;-47
2023/01/19 03:47:10;;;;;;;5.25;3.65;;;;;;;-1.32;79.13;99112.84;5014558;28;20080;-50
2023/01/19 03:49:40;;;;;;;6.55;3.67;;;;;;;-1.33;78.90;99113.63;5017452;28;20456;-48
2023/01/19 03:52:07;;;;;;;4.75;2.40;;;;;;;-1.32;78.57;99113.69;5009762;28;20192;-51
2023/01/19 03:54:33;;;;;;;5.07;3.65;;;;;;;-1.31;79.23;99112.84;5015006;28;20073;-48
2023/01/19 03:57:00;;;;;;;4.63;2.28;;;;;;;-1.28;78.61;99118.88;5014252;28;20218;-47
2023/01/19 03:59:27;;;;;;;7.07;4.15;;;;;;;-1.30;78.45;99117.16;5014587;28;20137;-49
2023/01/19 04:01:53;;;;;;;6.38;2.35;;;;;;;-1.30;78.74;99122.22;5004906;28;20773;-48
2023/01/19 04:04:20;;;;;;;6.35;3.33;;;;;;;-1.32;78.43;99116.22;5009464;28;20103;-49
2023/01/19 04:06:47;;;;;;;5.38;3.40;;;;;;;-1.31;78.40;99112.84;5015201;28;20080;-51
2023/01/19 04:09:13;;;;;;;6.13;3.15;;;;;;;-1.33;78.32;99099.25;5010908;28;20567;-49
2023/01/19 04:11:40;;;;;;;5.28;3.15;;;;;;;-1.32;78.84;99108.59;5002633;28;20050;-50
2023/01/19 04:14:06;;;;;;;6.18;3.47;;;;;;;-1.33;78.43;99108.56;5011134;28;20517;-48
2023/01/19 04:16:33;;;;;;;4.47;2.00;;;;;;;-1.32;79.04;99110.31;5011109;28;20076;-48
2023/01/19 04:19:00;;;;;;;5.97;2.60;;;;;;;-1.31;78.55;99112.84;5004241;28;20104;-49
2023/01/19 04:21:26;;;;;;;4.38;2.90;;;;;;;-1.30;78.79;99114.59;5014767;28;20617;-49
2023/01/19 04:23:53;;;;;;;6.60;3.22;;;;;;;-1.31;78.62;99107.78;5011261;28;20049;-52
2023/01/19 04:26:20;;;;;;;10.10;3.45;;;;;;;-1.31;78.46;99112.03;5008285;28;20070;-48
2023/01/19 04:28:46;;;;;;;6.47;3.17;;;;;;;-1.32;79.04;99111.16;5013518;28;20682;-49
2023/01/19 04:31:13;;;;;;;3.45;1.63;;;;;;;-1.31;78.47;99107.78;5008537;28;20046;-48
2023/01/19 04:33:40;;;;;;;3.67;3.15;;;;;;;-1.32;79.42;99111.16;4999125;28;20061;-48
2023/01/19 04:36:07;;;;;;;7.80;3.28;;;;;;;-1.32;78.57;99106.06;4996390;28;20054;-49
2023/01/19 04:38:34;;;;;;;6.25;3.03;;;;;;;-1.32;78.79;99103.53;4995578;28;20049;-49
2023/01/19 04:41:00;;;;;;;6.97;3.20;;;;;;;-1.33;79.28;99109.44;4994319;28;20043;-48
2023/01/19 04:43:27;;;;;;;6.93;2.45;;;;;;;-1.32;79.08;99100.97;4994670;28;20046;-48
2023/01/19 04:45:54;;;;;;;7.75;3.60;;;;;;;-1.31;78.74;99107.78;4995511;28;20050;-49
2023/01/19 04:48:20;;;;;;;6.28;3.40;;;;;;;-1.30;78.88;99109.53;4999383;28;20042;-48
2023/01/19 04:50:50;;;;;;;9.13;2.05;;;;;;;-1.30;78.65;99109.53;4994696;28;20101;-48
2023/01/19 04:53:17;;;;;;;6.47;3.10;;;;;;;-1.30;78.78;99108.66;4996239;28;20180;-48
2023/01/19 04:55:44;;;;;;;6.40;4.35;;;;;;;-1.31;78.45;99102.69;4987460;28;20509;-48
2023/01/19 04:58:10;;;;;;;5.22;2.85;;;;;;;-1.32;78.65;99105.22;4972052;28;20774;-48
2023/01/19 05:00:37;;;;;;;7.13;4.05;;;;;;;-1.31;78.58;99095.06;4981706;28;20077;-48
2023/01/19 05:03:04;;;;;;;8.10;2.33;;;;;;;-1.30;78.74;99088.31;4997917;28;20054;-51
2023/01/19 05:05:32;;;;;;;9.57;2.40;;;;;;;-1.30;78.66;99099.38;4992010;28;20112;-49
2023/01/19 05:07:59;;;;;;;7.65;2.95;;;;;;;-1.28;78.30;99096.00;4995617;28;20704;-48
2023/01/19 05:10:26;;;;;;;5.25;3.08;;;;;;;-1.31;78.61;99091.69;4994981;28;20077;-49
2023/01/19 05:12:52;;;;;;;9.07;3.90;;;;;;;-1.33;78.87;99094.19;4998170;28;20509;-50
2023/01/19 05:15:19;;;;;;;5.57;3.58;;;;;;;-1.34;78.34;99089.06;5001912;28;20131;-47
2023/01/19 05:17:45;;;;;;;4.18;2.88;;;;;;;-1.35;78.62;99094.97;4997819;28;20042;-48
2023/01/19 05:20:12;;;;;;;7.25;3.35;;;;;;;-1.36;78.17;99098.28;4991564;28;20098;-49
2023/01/19 05:22:42;;;;;;;6.53;3.65;;;;;;;-1.39;78.76;99099.06;5000617;28;20046;-48
2023/01/19 05:25:08;;;;;;;5.28;1.98;;;;;;;-1.40;78.88;99097.34;4994571;28;20098;-51
2023/01/19 05:27:36;;;;;;;5.32;3.97;;;;;;;-1.44;78.57;99101.50;4999603;28;20097;-49
2023/01/19 05:30:04;;;;;;;7.03;4.18;;;;;;;-1.47;78.38;99106.47;4976476;28;20050;-48
2023/01/19 05:32:31;;;;;;;6.55;3.63;;;;;;;-1.49;78.60;99102.16;4978119;28;20058;-50
2023/01/19 05:34:57;;;;;;;5.18;3.58;;;;;;;-1.52;78.64;99102.06;4976156;28;20061;-51
2023/01/19 05:37:24;;;;;;;4.80;2.22;;;;;;;-1.55;78.37;99093.53;4981352;28;20109;-48
2023/01/19 05:39:51;;;;;;;6.93;5.25;;;;;;;-1.55;78.48;99097.75;4969388;28;20172;-49
2023/01/19 05:42:18;;;;;;;7.85;4.05;;;;;;;-1.56;78.73;99096.00;4979169;28;20671;-48
2023/01/19 05:44:44;;;;;;;7.70;2.70;;;;;;;-1.59;78.12;99090.88;4975269;28;20133;-48
2023/01/19 05:47:11;;;;;;;7.25;3.25;;;;;;;-1.60;78.93;99090.00;4969381;28;20085;-51
2023/01/19 05:49:37;;;;;;;6.35;3.40;;;;;;;-1.61;78.39;99089.94;4977541;28;20461;-47
2023/01/19 05:52:04;;;;;;;5.63;3.28;;;;;;;-1.62;78.47;99091.59;4968397;28;20490;-47
2023/01/19 05:54:31;;;;;;;5.97;2.30;;;;;;;-1.62;78.32;99086.53;4970456;28;20086;-48
2023/01/19 05:56:57;;;;;;;8.43;3.10;;;;;;;-1.62;78.13;99091.59;4974399;28;20096;-50
2023/01/19 05:59:24;;;;;;;5.72;3.63;;;;;;;-1.63;78.28;99094.97;4972266;28;20058;-51
2023/01/19 06:01:51;;;;;;;6.30;3.65;;;;;;;-1.62;78.69;99100.91;4971041;28;20788;-48
2023/01/19 06:04:19;;;;;;;4.13;1.73;;;;;;;-1.61;78.73;99103.50;4978198;28;20054;-51
2023/01/19 06:06:47;;;;;;;6.25;2.13;;;;;;;-1.62;78.94;99099.22;4968880;28;20054;-49
2023/01/19 06:09:14;;;;;;;8.68;4.18;;;;;;;-1.64;78.16;99100.88;4964007;28;20078;-48
2023/01/19 06:11:40;;;;;;;3.90;1.98;;;;;;;-1.64;78.18;99100.88;4978113;28;20062;-49
2023/01/19 06:14:09;;;;;;;7.15;3.22;;;;;;;-1.64;78.56;99103.41;4976324;28;20779;-48
2023/01/19 06:16:36;;;;;;;15.65;3.53;;;;;;;-1.64;78.77;99102.53;4972638;28;20692;-47
2023/01/19 06:19:03;;;;;;;9.82;4.00;;;;;;;-1.65;78.76;99111.84;4976667;28;20100;-48
2023/01/19 06:21:30;;;;;;;6.72;3.95;;;;;;;-1.65;78.52;99111.84;4975367;28;20062;-47
2023/01/19 06:23:57;;;;;;;4.47;3.05;;;;;;;-1.64;78.66;99105.94;4972467;28;20059;-48
2023/01/19 06:26:25;;;;;;;5.88;2.83;;;;;;;-1.63;79.15;99105.13;4990927;28;20077;-48
2023/01/19 06:28:51;;;;;;;6.68;3.60;;;;;;;-1.63;78.82;99112.75;4996555;28;20042;-49
2023/01/19 06:31:18;;;;;;;4.10;2.65;;;;;;;-1.65;79.25;99108.44;4996548;28;20039;-49
2023/01/19 06:33:45;;;;;;;4.38;2.15;;;;;;;-1.64;78.76;99113.56;4995198;28;20093;-47
2023/01/19 06:36:12;;;;;;;4.10;1.77;;;;;;;-1.65;79.56;99116.94;5000023;28;20053;-49
2023/01/19 06:38:39;;;;;;;5.57;3.45;;;;;;;-1.65;79.09;99119.47;4991981;28;20509;-48
2023/01/19 06:41:05;;;;;;;6.55;2.58;;;;;;;-1.65;79.28;99122.00;4995631;28;20127;-48
2023/01/19 06:43:32;;;;;;;4.50;2.80;;;;;;;-1.65;78.69;99123.69;4995922;28;20049;-48
2023/01/19 06:45:59;;;;;;;8.32;2.67;;;;;;;-1.65;79.26;99124.53;4995317;28;20073;-48
2023/01/19 06:48:26;;;;;;;5.47;3.88;;;;;;;-1.64;79.25;99123.72;4997223;28;20579;-48
2023/01/19 06:50:52;;;;;;;5.32;2.67;;;;;;;-1.65;79.24;99119.47;4997293;28;20048;-48
2023/01/19 06:53:21;;;;;;;4.82;2.30;;;;;;;-1.65;79.29;99119.47;4995149;28;20124;-49
2023/01/19 06:55:47;;;;;;;5.18;2.40;;;;;;;-1.64;79.12;99121.19;4993434;28;20215;-51
2023/01/19 06:58:14;;;;;;;5.97;2.70;;;;;;;-1.65;79.23;99121.13;4996227;28;20053;-49
2023/01/19 07:00:41;;;;;;;9.40;3.35;;;;;;;-1.66;78.66;99120.25;4991408;28;20556;-51
2023/01/19 07:03:18;;;;;;;8.05;3.40;;;;;;;-1.67;78.82;99118.53;4998278;28;20050;-48
2023/01/19 07:05:44;;;;;;;5.75;3.30;;;;;;;-1.66;79.02;99119.41;4993436;28;20054;-48
2023/01/19 07:08:11;;;;;;;5.68;3.33;;;;;;;-1.67;78.64;99118.53;4989974;28;20043;-49
2023/01/19 07:10:38;;;;;;;5.47;3.47;;;;;;;-1.66;79.11;99130.41;4991023;28;20128;-48
2023/01/19 07:13:24;;;;;;;7.60;3.28;;;;;;;-1.66;79.03;99124.50;4994632;28;20046;-47
2023/01/19 07:15:51;;;;;;;5.05;2.60;;;;;;;-1.66;78.86;99122.81;4993901;28;20081;-49
2023/01/19 07:18:18;;;;;;;16.35;4.85;;;;;;;-1.66;79.08;99135.50;4991236;28;21669;-48
2023/01/19 07:20:45;;;;;;;6.75;2.47;;;;;;;-1.66;79.30;99137.19;4996815;28;20157;-51
2023/01/19 07:23:12;;;;;;;4.03;2.65;;;;;;;-1.66;79.17;99130.41;4997882;28;20066;-49
2023/01/19 07:25:38;;;;;;;3.38;1.38;;;;;;;-1.64;79.38;99138.97;4988432;28;20125;-50
2023/01/19 07:28:05;;;;;;;4.63;1.80;;;;;;;-1.63;78.89;99140.69;4998830;28;20054;-48
2023/01/19 07:30:32;;;;;;;4.18;2.72;;;;;;;-1.63;79.29;99139.81;4992223;28;20734;-48
2023/01/19 07:32:59;;;;;;;4.80;2.35;;;;;;;-1.62;79.33;99132.25;4998344;28;20434;-49
2023/01/19 07:35:28;;;;;;;4.60;2.22;;;;;;;-1.62;78.95;99136.47;4994318;28;20780;-49
2023/01/19 07:37:55;;;;;;;5.32;1.60;;;;;;;-1.62;79.28;99136.47;4991566;28;20053;-48
2023/01/19 07:40:22;;;;;;;7.25;3.20;;;;;;;-1.61;79.02;99146.69;4989643;28;20058;-48
2023/01/19 07:42:50;;;;;;;7.95;2.75;;;;;;;-1.61;79.44;99149.22;4990153;28;20048;-48
2023/01/19 07:45:20;;;;;;;5.82;2.95;;;;;;;-1.61;79.05;99149.22;4990192;28;20046;-47
2023/01/19 07:47:47;;;;;;;4.63;2.08;;;;;;;-1.59;79.70;99152.66;4987616;28;20058;-49
2023/01/19 07:50:15;;;;;;;3.47;1.48;;;;;;;-1.58;79.62;99154.38;4987041;28;20548;-50
2023/01/19 07:52:43;;;;;;;7.53;4.22;;;;;;;-1.57;79.44;99155.25;4988445;28;20138;-48
2023/01/19 07:55:10;;;;;;;5.85;2.40;;;;;;;-1.58;79.24;99149.28;4988920;28;20054;-48
2023/01/19 07:57:36;;;;;;;6.35;3.17;;;;;;;-1.56;79.19;99151.88;4992885;28;20054;-50
2023/01/19 08:00:03;;;;;;;6.80;3.33;;;;;;;-1.56;79.42;99157.84;4985856;28;20505;-50
2023/01/19 08:02:32;;;;;;;5.50;2.65;;;;;;;-1.55;79.17;99149.41;4988739;28;20140;-50
2023/01/19 08:04:59;;;;;;;8.23;4.22;;;;;;;-1.53;79.22;99157.06;4988927;28;20089;-50
2023/01/19 08:07:26;;;;;;;4.10;3.05;;;;;;;-1.50;79.30;99146.13;4989877;28;20604;-50
2023/01/19 08:09:52;;;;;;;5.20;2.20;;;;;;;-1.50;79.61;99146.13;4990268;28;20140;-48
2023/01/19 08:12:19;;;;;;;3.97;2.95;;;;;;;-1.47;79.11;99153.88;4985274;28;20207;-49
2023/01/19 08:14:45;;;;;;;9.15;4.07;;;;;;;-1.47;79.29;99152.19;4992285;28;20172;-49
2023/01/19 08:17:12;;;;;;;6.93;3.45;;;;;;;-1.46;79.71;99160.66;4993011;28;20509;-50
2023/01/19 08:19:40;;;;;;;5.30;2.65;;;;;;;-1.44;79.35;99161.59;4992117;28;20457;-53
2023/01/19 08:22:07;;;;;;;4.65;1.65;;;;;;;-1.43;79.00;99164.19;4994179;28;20046;-49
2023/01/19 08:24:34;;;;;;;5.22;1.75;;;;;;;-1.34;79.13;99167.81;4991740;28;20074;-50
2023/01/19 08:27:02;;;;;;;5.10;2.58;;;;;;;-1.20;79.85;99165.69;4989799;28;20446;-51
2023/01/19 08:29:30;;;;;;;8.15;4.25;;;;;;;-1.05;79.78;99168.69;4989848;28;20089;-51
2023/01/19 08:31:58;;;;;;;8.38;3.00;;;;;;;-0.87;79.53;99162.44;4989440;28;20043;-51
2023/01/19 08:34:26;;;;;;;13.18;3.78;;;;;;;-0.61;79.75;99162.31;4992869;28;20050;-50
2023/01/19 08:36:53;;;;;;;6.25;3.50;;;;;;;-0.33;79.32;99172.41;4993641;28;20073;-48
2023/01/19 08:39:19;;;;;;;9.27;5.43;;;;;;;-0.06;79.18;99172.28;5000409;28;20650;-51
2023/01/19 08:41:46;;;;;;;9.20;4.97;;;;;;;0.34;79.32;99171.56;4994825;28;20082;-49
2023/01/19 08:44:14;;;;;;;9.75;4.88;;;;;;;0.83;79.17;99171.00;4993037;28;20046;-49
2023/01/19 08:46:41;;;;;;;9.38;4.45;;;;;;;1.28;77.96;99174.50;4994423;28;20521;-49
2023/01/19 08:49:08;;;;;;;5.38;2.88;;;;;;;1.76;77.68;99167.78;5002849;28;20077;-50
2023/01/19 08:51:34;;;;;;;6.07;3.92;;;;;;;2.30;77.69;99172.16;4994019;28;20522;-48
2023/01/19 08:54:01;;;;;;;8.10;2.67;;;;;;;2.82;78.08;99168.69;4999223;28;20084;-49
2023/01/19 08:56:28;;;;;;;8.23;2.45;;;;;;;3.31;77.57;99171.03;4991913;28;20540;-49
2023/01/19 08:58:54;;;;;;;7.25;3.60;;;;;;;3.93;77.61;99168.34;4999050;28;20105;-49
2023/01/19 09:01:33;;;;;;;9.02;4.90;;;;;;;4.72;76.51;99169.84;4995892;28;20034;-49
2023/01/19 09:04:00;;;;;;;6.70;3.50;;;;;;;5.49;75.58;99169.41;4997222;28;20104;-50
2023/01/19 09:06:27;;;;;;;11.00;4.13;;;;;;;6.16;74.82;99179.03;5000356;28;20135;-50
2023/01/19 09:08:54;;;;;;;23.67;8.90;;;;;;;6.78;74.21;99175.59;4998181;28;20054;-49
2023/01/19 09:11:21;;;;;;;24.90;9.25;;;;;;;7.38;72.58;99182.31;4991571;28;20093;-50
2023/01/19 09:13:47;;;;;;;11.55;4.78;;;;;;;7.94;71.70;99182.03;4992099;28;20056;-49
2023/01/19 09:16:14;;;;;;;27.77;10.20;;;;;;;8.42;71.46;99191.19;4991700;28;20043;-53
2023/01/19 09:18:41;;;;;;;48.67;16.23;;;;;;;8.57;70.37;99191.94;4986180;28;20050;-53
2023/01/19 09:21:08;;;;;;;20.38;7.82;;;;;;;8.91;70.32;99190.81;4991354;28;20192;-52
2023/01/19 09:23:34;;;;;;;47.72;17.58;;;;;;;9.25;69.81;99188.72;4990970;28;20140;-50
2023/01/19 09:26:03;;;;;;;182.23;53.55;;;;;;;9.11;69.00;99193.19;4995360;28;20777;-52
2023/01/19 09:28:30;;;;;;;49.38;16.48;;;;;;;8.81;68.21;99205.53;4979116;28;20049;-53
2023/01/19 09:30:57;;;;;;;47.63;16.30;;;;;;;8.39;67.45;99204.13;4996951;28;20046;-49
2023/01/19 09:33:24;;;;;;;29.92;9.10;;;;;;;8.36;69.42;99198.97;4989982;28;20050;-50
2023/01/19 09:35:50;;;;;;;29.85;11.07;;;;;;;8.66;70.15;99201.34;4994277;28;20049;-51
2023/01/19 09:38:18;;;;;;;33.33;10.45;;;;;;;9.00;68.88;99196.75;4988964;28;20046;-51
2023/01/19 09:46:40;;;;;;;19.20;8.32;;;;;;;11.64;66.99;99203.13;5036436;27;20409;-53
2023/01/19 09:49:18;;;;;;;46.03;17.02;;;;;;;12.42;64.47;99203.19;5015861;28;20498;-52
2023/01/19 09:51:47;;;;;;;18.25;8.45;;;;;;;13.09;63.00;99199.78;5012481;28;20049;-51
2023/01/19 09:54:17;;;;;;;48.85;19.17;;;;;;;13.75;62.21;99213.63;5011042;28;20042;-52
2023/01/19 09:56:54;;;;;;;10.90;5.70;;;;;;;14.26;60.13;99213.81;5000591;28;20069;-54
2023/01/19 09:59:24;;;;;;;15.82;6.85;;;;;;;13.97;58.70;99207.75;4991385;28;20074;-54
2023/01/19 10:09:55;;;;;;;8.07;3.78;;;;;;;13.45;59.18;99221.38;5068405;27;20381;-55
2023/01/19 10:12:34;;;;;;;4.38;2.25;;;;;;;14.04;58.47;99218.81;5036918;28;20140;-55
2023/01/19 10:15:20;;;;;;;4.30;2.13;;;;;;;14.58;57.53;99219.75;5031299;28;20049;-54
2023/01/19 10:21:01;;;;;;;6.60;3.65;;;;;;;15.21;54.65;99215.09;5047041;28;20403;-54
2023/01/19 10:23:37;;;;;;;5.55;2.63;;;;;;;15.46;53.94;99216.81;5017985;27;20073;-53
2023/01/19 10:26:14;;;;;;;5.18;2.00;;;;;;;15.71;52.80;99221.13;5017654;28;20050;-55
2023/01/19 10:28:44;;;;;;;5.63;2.90;;;;;;;15.62;52.24;99223.19;5010331;28;20054;-54
2023/01/19 10:31:11;;;;;;;16.95;5.88;;;;;;;15.63;51.91;99218.78;5021318;28;20042;-53
2023/01/19 10:33:38;;;;;;;11.90;4.63;;;;;;;15.14;51.37;99212.69;5015681;28;20046;-56
2023/01/19 10:36:15;;;;;;;8.40;2.72;;;;;;;14.51;51.46;99218.25;5017822;28;20076;-55
2023/01/19 10:38:42;;;;;;;9.82;4.72;;;;;;;14.68;52.63;99209.88;4992473;28;20113;-54
2023/01/19 10:41:16;;;;;;;10.00;4.82;;;;;;;15.02;52.70;99213.13;5006965;28;20095;-54
2023/01/19 10:43:45;;;;;;;8.35;3.35;;;;;;;14.93;51.14;99218.66;5010143;28;20693;-53
2023/01/19 10:46:32;;;;;;;8.70;3.08;;;;;;;14.80;51.04;99221.69;5009371;28;20057;-56
2023/01/19 10:48:59;;;;;;;4.82;2.60;;;;;;;14.82;50.30;99225.06;5008478;28;20069;-56
2023/01/19 10:51:26;;;;;;;7.47;2.97;;;;;;;14.52;49.68;99225.16;5010526;28;20050;-56
2023/01/19 10:53:56;;;;;;;6.40;2.97;;;;;;;14.08;49.99;99223.06;5012027;28;20080;-55
2023/01/19 10:56:28;;;;;;;5.55;2.88;;;;;;;13.47;51.07;99214.34;5012384;28;20384;-57
2023/01/19 10:58:56;;;;;;;9.40;2.92;;;;;;;12.80;51.30;99224.78;4994868;28;20078;-54
2023/01/19 11:01:25;;;;;;;6.47;2.47;;;;;;;12.16;50.71;99217.66;4995199;28;20123;-54
2023/01/19 11:03:54;;;;;;;5.07;2.53;;;;;;;11.53;51.80;99218.94;4995294;28;20475;-55
2023/01/19 11:06:26;;;;;;;7.53;2.90;;;;;;;10.95;53.08;99221.72;4996598;28;20050;-56
2023/01/19 11:09:10;;;;;;;5.50;1.98;;;;;;;10.31;53.31;99220.13;4996799;28;20038;-56
2023/01/19 11:11:44;;;;;;;5.03;1.95;;;;;;;9.94;53.79;99218.94;4997841;28;20141;-55
2023/01/19 11:14:13;;;;;;;6.40;1.95;;;;;;;9.51;54.67;99213.44;4994526;28;20097;-52
2023/01/19 11:16:46;;;;;;;4.60;1.50;;;;;;;9.12;55.03;99220.75;4991189;28;20160;-54
2023/01/19 11:19:19;;;;;;;4.72;1.58;;;;;;;8.79;55.30;99227.94;4991063;28;20461;-55
2023/01/19 11:21:46;;;;;;;4.07;1.98;;;;;;;8.43;56.18;99221.28;4994530;28;20627;-52
2023/01/19 11:24:15;;;;;;;7.55;2.10;;;;;;;8.09;56.37;99217.22;4993367;28;20104;-56
2023/01/19 11:29:24;;;;;;;4.97;1.33;;;;;;;7.33;57.73;99220.97;5013342;27;20398;-53
2023/01/19 11:31:52;;;;;;;4.72;1.85;;;;;;;6.93;57.13;99227.03;5002520;28;20133;-56
2023/01/19 11:34:37;;;;;;;7.32;1.35;;;;;;;6.62;57.41;99219.34;5002168;28;20057;-53
2023/01/19 11:37:25;;;;;;;3.00;1.25;;;;;;;6.49;58.61;99217.63;5002064;28;20464;-52
2023/01/19 11:39:56;;;;;;;3.40;1.20;;;;;;;6.30;59.02;99218.47;5002964;28;20927;-56
2023/01/19 11:42:25;;;;;;;2.15;1.02;;;;;;;6.06;60.54;99216.72;5003957;28;20058;-52
2023/01/19 11:47:37;;;;;;;5.53;1.95;;;;;;;5.88;61.02;99213.19;5026888;27;20401;-53
2023/01/19 11:50:13;;;;;;;2.70;1.98;;;;;;;5.86;61.44;99204.66;5033959;28;20045;-55
2023/01/19 11:57:54;;;;;;;7.53;3.38;;;;;;;5.73;62.39;99214.03;5097371;27;20414;-51
2023/01/19 12:06:09;;;;;;;3.28;3.03;;;;;;;5.13;62.44;99227.41;5005399;28;20432;-55
2023/01/19 12:08:42;;;;;;;7.85;2.58;;;;;;;5.13;63.04;99225.72;4975351;28;20058;-51
2023/01/19 12:11:15;;;;;;;6.03;2.72;;;;;;;5.11;63.01;99219.72;4971607;28;20054;-51
2023/01/19 12:13:43;;;;;;;4.13;3.00;;;;;;;5.21;63.12;99215.50;4972352;28;20058;-51
2023/01/19 12:16:27;;;;;;;9.52;3.78;;;;;;;5.07;62.61;99217.97;4982034;28;20046;-49
2023/01/19 12:19:05;;;;;;;7.40;3.45;;;;;;;5.04;62.96;99207.69;4974110;28;20114;-53
2023/01/19 12:21:32;;;;;;;6.55;2.95;;;;;;;4.95;64.07;99207.63;4972372;28;20141;-50
2023/01/19 12:24:12;;;;;;;8.38;4.35;;;;;;;4.86;64.02;99211.84;4974280;28;20069;-49
2023/01/19 12:26:56;;;;;;;15.45;6.28;;;;;;;4.69;64.79;99210.88;4970282;28;20414;-53
2023/01/19 12:29:30;;;;;;;3.15;2.75;;;;;;;4.70;64.43;99212.59;4973381;28;20142;-53
2023/01/19 12:34:50;;;;;;;5.15;2.08;;;;;;;4.62;64.27;99210.81;5055705;27;20413;-47
2023/01/19 12:37:37;;;;;;;8.82;0.93;;;;;;;4.51;65.09;99215.00;5037580;28;20060;-50